Time;durP1;ratioP1;P1;durP2;ratioP2;P2;SDS_P1;SDS_P2;PMS_P1;PMS_P2;Temp;Humidity;BMP_temperature;BMP_pressure;BME280_temperature;BME280_humidity;BME280_pressure;Samples;Min_cycle;Max_cycle;Signal;HPM_P1;HPM_P2
2022/08/16 00:00:21;;;;;;;2.45;1.80;;;18.60;99.90;;;;;;4942848;29;20062;-75
2022/08/16 00:02:47;;;;;;;1.42;0.82;;;18.70;99.90;;;;;;4946021;29;20044;-75
2022/08/16 00:05:14;;;;;;;6.32;1.58;;;18.70;99.90;;;;;;4946299;29;20047;-75
2022/08/16 00:07:41;;;;;;;0.68;0.68;;;18.50;99.90;;;;;;4946166;29;20091;-75
2022/08/16 00:10:10;;;;;;;0.93;0.47;;;18.60;99.90;;;;;;4946361;29;20051;-75
2022/08/16 00:12:40;;;;;;;1.23;1.02;;;18.60;99.90;;;;;;4945086;29;20047;-74
2022/08/16 00:15:14;;;;;;;0.50;0.50;;;18.60;99.90;;;;;;4946373;29;20039;-75
2022/08/16 00:17:40;;;;;;;4.65;1.77;;;18.60;99.90;;;;;;4944628;29;20043;-75
2022/08/16 00:20:07;;;;;;;1.17;1.08;;;18.50;99.90;;;;;;4944544;29;20075;-75
2022/08/16 00:22:34;;;;;;;1.52;1.23;;;18.50;99.90;;;;;;4945714;29;20046;-75
2022/08/16 00:25:00;;;;;;;5.78;0.77;;;18.50;99.90;;;;;;4945522;29;20075;-75
2022/08/16 00:27:26;;;;;;;0.85;0.77;;;18.50;99.90;;;;;;4944217;29;20048;-75
2022/08/16 00:29:53;;;;;;;0.52;0.38;;;18.60;99.90;;;;;;4941971;29;20488;-75
2022/08/16 00:32:22;;;;;;;0.60;0.30;;;18.60;99.90;;;;;;4941405;29;20503;-75
2022/08/16 00:34:48;;;;;;;1.85;1.45;;;18.60;99.90;;;;;;4941875;29;20118;-75
2022/08/16 00:37:14;;;;;;;1.02;0.73;;;18.70;99.90;;;;;;4941937;29;20083;-75
2022/08/16 00:39:39;;;;;;;0.40;0.30;;;18.70;99.90;;;;;;4942396;29;20152;-74
2022/08/16 00:42:05;;;;;;;0.75;0.55;;;18.60;99.90;;;;;;4941510;29;20173;-75
2022/08/16 00:44:33;;;;;;;1.08;0.85;;;18.70;99.90;;;;;;4941337;29;20055;-75
2022/08/16 00:47:04;;;;;;;0.10;0.10;;;18.70;99.90;;;;;;4942585;29;20052;-75
2022/08/16 00:49:31;;;;;;;1.98;0.22;;;18.70;99.90;;;;;;4941263;29;20051;-75
2022/08/16 00:51:57;;;;;;;0.00;0.00;;;18.70;99.90;;;;;;4941663;29;20051;-75
2022/08/16 00:54:28;;;;;;;0.98;0.68;;;18.60;99.90;;;;;;4940977;29;20047;-75
2022/08/16 00:56:56;;;;;;;0.47;0.38;;;18.70;99.90;;;;;;4941698;29;20055;-74
2022/08/16 00:59:25;;;;;;;0.98;0.80;;;18.60;99.90;;;;;;4941574;29;20052;-75
2022/08/16 01:01:52;;;;;;;0.32;0.32;;;18.60;99.90;;;;;;4936917;29;20391;-74
2022/08/16 01:04:21;;;;;;;0.75;0.43;;;18.60;99.90;;;;;;4942066;29;20048;-75
2022/08/16 01:06:49;;;;;;;0.52;0.38;;;18.60;99.90;;;;;;4940986;29;20050;-75
2022/08/16 01:09:15;;;;;;;0.10;0.10;;;18.50;99.90;;;;;;4939889;29;20098;-74
2022/08/16 01:11:41;;;;;;;0.30;0.30;;;18.50;99.90;;;;;;4940425;29;20048;-74
2022/08/16 01:14:20;;;;;;;0.55;0.32;;;18.50;99.90;;;;;;4942154;29;20040;-74
2022/08/16 01:16:47;;;;;;;1.02;0.93;;;18.40;99.90;;;;;;4939991;29;20064;-74
2022/08/16 01:19:42;;;;;;;1.17;0.88;;;18.40;99.90;;;;;;4941153;29;20040;-74
2022/08/16 01:22:45;;;;;;;1.38;1.27;;;18.30;99.90;;;;;;4921947;29;20052;-75
2022/08/16 01:25:17;;;;;;;1.05;0.80;;;18.30;99.90;;;;;;4920799;29;20060;-75
2022/08/16 01:27:46;;;;;;;1.55;1.30;;;18.20;99.90;;;;;;4921228;29;20072;-75
2022/08/16 01:30:34;;;;;;;1.70;1.15;;;18.20;99.90;;;;;;4927841;29;20573;-75
2022/08/16 01:33:02;;;;;;;2.65;1.00;;;18.20;99.90;;;;;;4941936;29;20036;-76
2022/08/16 01:35:36;;;;;;;4.50;1.15;;;18.10;99.90;;;;;;4941389;29;20099;-75
2022/08/16 01:38:22;;;;;;;1.73;0.70;;;18.00;99.90;;;;;;4939779;29;20067;-75
2022/08/16 01:40:51;;;;;;;0.63;0.55;;;18.00;99.90;;;;;;4944128;29;20048;-75
2022/08/16 01:43:16;;;;;;;1.52;1.10;;;18.00;99.90;;;;;;4944454;29;20447;-75
2022/08/16 01:45:42;;;;;;;0.20;0.20;;;18.00;99.90;;;;;;4944555;29;20098;-74
2022/08/16 01:48:08;;;;;;;0.10;0.10;;;18.10;99.90;;;;;;4944445;29;20103;-74
2022/08/16 01:50:35;;;;;;;1.10;0.68;;;18.10;99.90;;;;;;4944610;29;20051;-74
2022/08/16 01:53:01;;;;;;;0.40;0.38;;;18.40;99.90;;;;;;4943540;29;20039;-74
2022/08/16 01:55:27;;;;;;;0.10;0.10;;;18.20;99.90;;;;;;4944401;29;20058;-74
2022/08/16 01:57:53;;;;;;;0.20;0.20;;;18.20;99.90;;;;;;4943952;29;20039;-74
2022/08/16 02:00:19;;;;;;;0.68;0.57;;;18.20;99.90;;;;;;4943639;29;20039;-75
2022/08/16 02:02:44;;;;;;;0.17;0.17;;;18.20;99.90;;;;;;4943184;29;20051;-74
2022/08/16 02:05:11;;;;;;;1.08;0.70;;;18.20;99.90;;;;;;4942863;29;20047;-74
2022/08/16 02:07:37;;;;;;;0.20;0.20;;;18.10;99.90;;;;;;4942970;29;20071;-74
2022/08/16 02:10:07;;;;;;;0.40;0.35;;;18.00;99.90;;;;;;4943243;29;20036;-74
2022/08/16 02:12:33;;;;;;;0.60;0.40;;;18.00;99.90;;;;;;4943221;29;20522;-74
2022/08/16 02:14:59;;;;;;;0.95;0.82;;;17.90;99.90;;;;;;4943460;29;20079;-74
2022/08/16 02:17:26;;;;;;;0.38;0.15;;;17.90;99.90;;;;;;4942999;29;20547;-74
2022/08/16 02:19:52;;;;;;;0.10;0.10;;;17.90;99.90;;;;;;4943133;29;20040;-74
2022/08/16 02:22:21;;;;;;;0.43;0.32;;;17.80;99.90;;;;;;4943331;29;20063;-74
2022/08/16 02:24:47;;;;;;;1.17;0.93;;;17.70;99.90;;;;;;4940262;29;20055;-74
2022/08/16 02:27:13;;;;;;;1.08;0.82;;;17.80;99.90;;;;;;4942562;29;20071;-75
2022/08/16 02:29:39;;;;;;;2.13;1.50;;;17.90;99.90;;;;;;4942367;29;20137;-74
2022/08/16 02:32:07;;;;;;;0.65;0.60;;;17.70;99.90;;;;;;4941913;29;20048;-74
2022/08/16 02:34:33;;;;;;;3.33;0.85;;;17.60;99.90;;;;;;4942403;29;20071;-74
2022/08/16 02:36:59;;;;;;;0.30;0.30;;;17.50;99.90;;;;;;4942093;29;20051;-74
2022/08/16 02:39:25;;;;;;;3.55;1.70;;;17.40;99.90;;;;;;4941621;29;20123;-74
2022/08/16 02:41:52;;;;;;;3.22;1.63;;;17.40;99.90;;;;;;4942211;29;20082;-74
2022/08/16 02:44:18;;;;;;;1.40;1.02;;;17.40;99.90;;;;;;4942219;29;20086;-74
2022/08/16 02:46:44;;;;;;;2.45;1.60;;;17.30;99.90;;;;;;4943112;29;20051;-74
2022/08/16 02:49:11;;;;;;;1.13;1.02;;;17.40;99.90;;;;;;4942756;29;20054;-74
2022/08/16 02:51:38;;;;;;;3.05;1.05;;;17.40;99.90;;;;;;4942900;29;20063;-74
2022/08/16 02:54:05;;;;;;;1.10;0.98;;;17.30;99.90;;;;;;4942488;29;20052;-74
2022/08/16 02:56:31;;;;;;;0.40;0.40;;;17.20;99.90;;;;;;4943130;29;20047;-74
2022/08/16 02:58:57;;;;;;;2.42;0.82;;;17.20;99.90;;;;;;4943117;29;20051;-75
2022/08/16 03:01:26;;;;;;;0.63;0.20;;;17.10;99.90;;;;;;4943371;29;20051;-74
2022/08/16 03:03:53;;;;;;;0.60;0.40;;;17.10;99.90;;;;;;4943385;29;20104;-75
2022/08/16 03:06:20;;;;;;;0.60;0.22;;;17.10;99.90;;;;;;4943668;29;20044;-74
2022/08/16 03:08:47;;;;;;;0.73;0.43;;;17.10;99.90;;;;;;4942498;29;20058;-74
2022/08/16 03:11:12;;;;;;;0.20;0.20;;;17.10;99.90;;;;;;4942369;29;20134;-74
2022/08/16 03:13:39;;;;;;;0.13;0.13;;;17.10;99.90;;;;;;4942471;29;20036;-74
2022/08/16 03:16:05;;;;;;;0.55;0.43;;;17.00;99.90;;;;;;4941983;29;20518;-74
2022/08/16 03:18:31;;;;;;;0.20;0.20;;;17.10;99.90;;;;;;4941642;29;20044;-74
2022/08/16 03:20:58;;;;;;;0.22;0.22;;;17.00;99.90;;;;;;4940893;29;20118;-74
2022/08/16 03:23:24;;;;;;;0.75;0.40;;;17.00;99.90;;;;;;4940215;29;20052;-74
2022/08/16 03:25:50;;;;;;;1.27;1.10;;;17.00;99.90;;;;;;4939552;29;20047;-74
2022/08/16 03:28:16;;;;;;;2.25;1.38;;;17.30;99.90;;;;;;4938804;29;20094;-74
2022/08/16 03:30:42;;;;;;;5.63;0.98;;;17.10;99.90;;;;;;4938636;29;20043;-74
2022/08/16 03:33:09;;;;;;;1.02;0.95;;;17.00;99.90;;;;;;4939248;29;20384;-75
2022/08/16 03:35:36;;;;;;;3.35;1.50;;;17.00;99.90;;;;;;4940481;29;20036;-73
2022/08/16 03:38:05;;;;;;;6.55;1.60;;;16.70;99.90;;;;;;4939395;29;20058;-75
2022/08/16 03:40:32;;;;;;;3.30;0.90;;;16.50;99.90;;;;;;4940066;29;20043;-74
2022/08/16 03:42:58;;;;;;;3.03;1.13;;;16.40;99.90;;;;;;4939004;29;20048;-75
2022/08/16 03:45:24;;;;;;;3.05;2.25;;;16.40;99.90;;;;;;4940401;29;20059;-74
2022/08/16 03:47:50;;;;;;;2.03;1.52;;;16.20;99.90;;;;;;4939718;29;20058;-74
2022/08/16 03:50:16;;;;;;;1.70;1.33;;;16.20;99.90;;;;;;4938048;29;20048;-74
2022/08/16 03:52:42;;;;;;;2.25;1.48;;;16.10;99.90;;;;;;4938211;29;20051;-74
2022/08/16 03:55:09;;;;;;;2.72;1.50;;;16.10;99.90;;;;;;4938474;29;20043;-74
2022/08/16 03:57:35;;;;;;;1.55;1.20;;;16.00;99.90;;;;;;4939325;29;20181;-74
2022/08/16 04:00:11;;;;;;;0.25;0.25;;;16.00;99.90;;;;;;4939226;29;20067;-74
2022/08/16 04:02:36;;;;;;;4.53;1.30;;;15.90;99.90;;;;;;4938376;29;20054;-74
2022/08/16 04:05:03;;;;;;;3.65;1.00;;;16.10;99.90;;;;;;4938441;29;20414;-74
2022/08/16 04:07:29;;;;;;;2.40;1.88;;;16.10;99.90;;;;;;4937429;29;20044;-74
2022/08/16 04:09:54;;;;;;;1.17;0.80;;;16.10;99.90;;;;;;4937061;29;20071;-75
2022/08/16 04:12:20;;;;;;;1.55;1.02;;;16.10;99.90;;;;;;4937667;29;20046;-75
2022/08/16 04:14:46;;;;;;;2.45;1.02;;;16.20;99.90;;;;;;4936085;29;20048;-75
2022/08/16 04:17:14;;;;;;;3.00;1.83;;;16.20;99.90;;;;;;4937600;29;20050;-75
2022/08/16 04:19:40;;;;;;;0.52;0.40;;;16.20;99.90;;;;;;4936924;29;20087;-74
2022/08/16 04:22:06;;;;;;;0.43;0.35;;;16.20;99.90;;;;;;4937604;29;20044;-74
2022/08/16 04:24:32;;;;;;;0.77;0.77;;;16.10;99.90;;;;;;4937495;29;20099;-75
2022/08/16 04:26:57;;;;;;;3.08;1.33;;;16.10;99.90;;;;;;4938287;29;20430;-74
2022/08/16 04:29:23;;;;;;;2.50;0.30;;;16.20;99.90;;;;;;4938399;29;20052;-75
2022/08/16 04:31:50;;;;;;;2.00;0.90;;;16.00;99.90;;;;;;4937890;29;20039;-75
2022/08/16 04:34:16;;;;;;;0.17;0.10;;;15.90;99.90;;;;;;4937750;29;20071;-74
2022/08/16 04:36:42;;;;;;;0.10;0.10;;;15.90;99.90;;;;;;4936668;29;20055;-74
2022/08/16 04:39:08;;;;;;;0.10;0.10;;;15.90;99.90;;;;;;4937040;29;20075;-74
2022/08/16 04:41:34;;;;;;;0.73;0.22;;;15.80;99.90;;;;;;4936697;29;20407;-75
2022/08/16 04:44:00;;;;;;;1.95;0.20;;;15.80;99.90;;;;;;4936932;29;20044;-74
2022/08/16 04:46:25;;;;;;;0.68;0.40;;;15.90;99.90;;;;;;4936960;29;20047;-74
2022/08/16 04:48:51;;;;;;;1.73;0.95;;;15.90;99.90;;;;;;4936268;29;20048;-74
2022/08/16 04:51:17;;;;;;;0.75;0.50;;;16.00;99.90;;;;;;4935996;29;20491;-75
2022/08/16 04:53:42;;;;;;;0.25;0.25;;;16.00;99.90;;;;;;4935797;29;20090;-74
2022/08/16 04:56:08;;;;;;;0.17;0.17;;;16.10;99.90;;;;;;4935913;29;20115;-74
2022/08/16 04:58:34;;;;;;;0.60;0.60;;;16.10;99.90;;;;;;4935715;29;20052;-74
2022/08/16 05:01:00;;;;;;;1.33;1.08;;;16.10;99.90;;;;;;4935612;29;20517;-74
2022/08/16 05:03:26;;;;;;;1.10;0.70;;;16.20;99.90;;;;;;4935596;29;20080;-75
2022/08/16 05:05:52;;;;;;;0.77;0.75;;;16.30;99.90;;;;;;4935381;29;20050;-74
2022/08/16 05:08:17;;;;;;;0.47;0.47;;;16.30;99.90;;;;;;4933849;29;20043;-75
2022/08/16 05:10:43;;;;;;;5.43;1.75;;;16.30;99.90;;;;;;4932426;29;20039;-74
2022/08/16 05:13:09;;;;;;;1.23;0.80;;;16.40;99.90;;;;;;4932835;29;20059;-75
2022/08/16 05:15:35;;;;;;;0.65;0.40;;;16.40;99.90;;;;;;4936931;29;20051;-75
2022/08/16 05:18:02;;;;;;;1.17;0.85;;;16.40;99.90;;;;;;4936009;29;20380;-75
2022/08/16 05:20:28;;;;;;;1.52;0.95;;;16.50;99.90;;;;;;4916516;29;20044;-75
2022/08/16 05:22:54;;;;;;;2.10;1.35;;;16.60;99.90;;;;;;4917261;29;20067;-75
2022/08/16 05:25:20;;;;;;;2.88;1.75;;;16.70;99.90;;;;;;4916774;29;20048;-74
2022/08/16 05:27:46;;;;;;;3.88;1.17;;;16.70;99.90;;;;;;4917890;29;20507;-75
2022/08/16 05:30:12;;;;;;;1.63;1.27;;;16.80;99.90;;;;;;4934491;29;20135;-75
2022/08/16 05:32:39;;;;;;;1.52;1.40;;;16.90;99.90;;;;;;4939684;29;20039;-75
2022/08/16 05:35:08;;;;;;;1.27;1.17;;;17.10;99.90;;;;;;4941443;29;20067;-75
2022/08/16 05:37:35;;;;;;;3.13;1.75;;;17.20;99.90;;;;;;4940482;29;20114;-75
2022/08/16 05:40:02;;;;;;;5.05;1.98;;;17.30;99.90;;;;;;4942457;29;20039;-75
2022/08/16 05:42:27;;;;;;;2.08;1.77;;;17.50;99.90;;;;;;4940500;29;20048;-75
2022/08/16 05:44:53;;;;;;;0.77;0.75;;;17.50;99.90;;;;;;4940197;29;20557;-75
2022/08/16 05:47:18;;;;;;;3.15;2.20;;;17.60;99.90;;;;;;4941367;29;20063;-74
2022/08/16 05:49:44;;;;;;;5.68;2.70;;;17.70;99.90;;;;;;4939581;29;20528;-75
2022/08/16 05:52:11;;;;;;;4.97;2.92;;;18.00;99.90;;;;;;4939708;29;20514;-75
2022/08/16 05:54:36;;;;;;;7.03;2.78;;;18.00;99.90;;;;;;4940682;29;20506;-75
2022/08/16 05:57:02;;;;;;;3.28;2.00;;;18.20;99.90;;;;;;4939431;29;20044;-75
2022/08/16 05:59:28;;;;;;;1.80;1.40;;;18.40;99.90;;;;;;4939695;29;20104;-75
2022/08/16 06:01:54;;;;;;;0.75;0.75;;;18.50;99.90;;;;;;4939528;29;20384;-75
2022/08/16 06:04:20;;;;;;;3.10;2.38;;;18.60;99.90;;;;;;4939064;29;20413;-75
2022/08/16 06:06:46;;;;;;;1.45;1.13;;;18.80;99.90;;;;;;4939783;29;20052;-75
2022/08/16 06:09:13;;;;;;;6.22;2.53;;;18.90;99.90;;;;;;4939529;29;20048;-75
2022/08/16 06:11:40;;;;;;;6.90;1.77;;;19.00;99.90;;;;;;4940126;29;20043;-75
2022/08/16 06:14:06;;;;;;;1.85;0.95;;;19.20;99.90;;;;;;4939106;29;20054;-74
2022/08/16 06:16:31;;;;;;;2.22;1.48;;;19.40;99.90;;;;;;4941916;28;20498;-75
2022/08/16 06:18:57;;;;;;;1.02;0.93;;;20.00;99.90;;;;;;4952341;28;20042;-75
2022/08/16 06:21:23;;;;;;;2.42;1.33;;;21.00;99.90;;;;;;4958950;28;20051;-75
2022/08/16 06:23:48;;;;;;;2.13;1.20;;;21.90;99.90;;;;;;4958821;28;20146;-74
2022/08/16 06:26:14;;;;;;;1.95;1.52;;;22.70;99.90;;;;;;4949221;28;20047;-75
2022/08/16 06:28:40;;;;;;;1.98;1.60;;;23.40;99.90;;;;;;4950832;28;20443;-75
2022/08/16 06:31:09;;;;;;;0.88;0.77;;;24.00;99.90;;;;;;4949029;28;20051;-75
2022/08/16 06:33:34;;;;;;;0.85;0.77;;;24.60;99.90;;;;;;4950525;28;20105;-76
2022/08/16 06:36:00;;;;;;;4.35;1.38;;;25.00;99.90;;;;;;4947553;28;20126;-75
2022/08/16 06:38:27;;;;;;;1.50;1.15;;;25.30;99.90;;;;;;4948114;28;20043;-74
2022/08/16 06:40:53;;;;;;;3.10;1.50;;;25.50;99.90;;;;;;4954483;28;20048;-75
2022/08/16 06:43:21;;;;;;;0.95;0.88;;;25.10;99.90;;;;;;4946896;28;20130;-75
2022/08/16 06:45:47;;;;;;;18.08;1.35;;;24.80;99.90;;;;;;4945581;28;20084;-75
2022/08/16 06:48:14;;;;;;;2.45;1.73;;;24.20;99.90;;;;;;4950030;28;20066;-75
2022/08/16 06:50:40;;;;;;;1.63;1.20;;;23.90;99.90;;;;;;4947816;28;20048;-75
2022/08/16 06:53:06;;;;;;;4.35;2.15;;;23.60;99.90;;;;;;4947030;28;20486;-75
2022/08/16 06:55:35;;;;;;;1.52;1.08;;;23.40;99.90;;;;;;4951078;28;20062;-75
2022/08/16 06:58:01;;;;;;;1.33;0.65;;;23.30;99.90;;;;;;4947161;28;20040;-75
2022/08/16 07:00:27;;;;;;;2.20;1.58;;;23.50;99.90;;;;;;4940170;29;20043;-75
2022/08/16 07:02:52;;;;;;;0.95;0.85;;;23.60;99.90;;;;;;4939750;29;20050;-75
2022/08/16 07:05:19;;;;;;;2.20;1.48;;;23.50;99.90;;;;;;4938762;29;20044;-75
2022/08/16 07:07:47;;;;;;;2.63;1.00;;;23.90;99.90;;;;;;4939219;29;20539;-75
2022/08/16 07:10:13;;;;;;;0.55;0.55;;;24.40;99.90;;;;;;4938437;29;20099;-75
2022/08/16 07:12:39;;;;;;;2.20;1.17;;;25.00;99.90;;;;;;4938584;29;20109;-75
2022/08/16 07:15:06;;;;;;;0.70;0.70;;;25.50;99.90;;;;;;4938622;29;20039;-76
2022/08/16 07:17:32;;;;;;;1.65;1.33;;;25.70;99.90;;;;;;4939562;29;20127;-75
2022/08/16 07:19:58;;;;;;;1.98;1.38;;;26.00;99.90;;;;;;4944120;28;20040;-75
2022/08/16 07:22:25;;;;;;;2.38;1.25;;;26.10;99.90;;;;;;4958753;28;20102;-75
2022/08/16 07:24:51;;;;;;;1.90;1.25;;;26.30;99.90;;;;;;4959262;28;20055;-76
2022/08/16 07:27:17;;;;;;;0.68;0.68;;;26.60;99.90;;;;;;4961110;28;20051;-75
2022/08/16 07:29:43;;;;;;;2.88;1.80;;;27.00;99.90;;;;;;4960840;28;20054;-75
2022/08/16 07:32:09;;;;;;;11.27;1.23;;;27.30;98.00;;;;;;4962076;28;20050;-75
2022/08/16 07:34:35;;;;;;;2.47;1.08;;;27.50;95.60;;;;;;4965391;28;20119;-75
2022/08/16 07:37:07;;;;;;;1.10;0.85;;;27.50;93.90;;;;;;4962961;28;20042;-75
2022/08/16 07:39:33;;;;;;;0.93;0.82;;;27.50;93.30;;;;;;4963471;28;20073;-74
2022/08/16 07:41:59;;;;;;;2.53;1.35;;;27.50;90.00;;;;;;4962759;28;20477;-75
2022/08/16 07:44:24;;;;;;;10.80;1.25;;;27.70;79.80;;;;;;4963415;28;20157;-74
2022/08/16 07:46:50;;;;;;;0.82;0.70;;;27.80;79.10;;;;;;4962737;28;20107;-76
2022/08/16 07:49:16;;;;;;;0.38;0.38;;;27.80;78.50;;;;;;4967942;28;20035;-75
2022/08/16 07:51:42;;;;;;;0.40;0.30;;;28.20;80.40;;;;;;4964601;28;20071;-75
2022/08/16 07:54:09;;;;;;;0.40;0.40;;;28.40;70.30;;;;;;4958387;28;20035;-76
2022/08/16 07:56:35;;;;;;;2.55;1.50;;;28.80;68.90;;;;;;4948766;29;20047;-76
2022/08/16 07:59:01;;;;;;;1.70;1.42;;;28.70;60.10;;;;;;4945951;29;20044;-75
2022/08/16 08:01:28;;;;;;;1.38;0.93;;;28.70;45.90;;;;;;4945580;29;20111;-76
2022/08/16 08:03:54;;;;;;;0.68;0.47;;;28.60;44.80;;;;;;4946552;29;20047;-75
2022/08/16 08:06:22;;;;;;;1.20;0.90;;;28.60;49.00;;;;;;4949390;29;20522;-76
2022/08/16 08:08:48;;;;;;;1.27;0.45;;;28.80;43.50;;;;;;4955978;28;20340;-75
2022/08/16 08:11:14;;;;;;;1.23;0.82;;;28.80;47.50;;;;;;4953683;28;20048;-76
2022/08/16 08:13:39;;;;;;;0.55;0.38;;;29.00;40.60;;;;;;4946511;29;20111;-76
2022/08/16 08:16:05;;;;;;;0.60;0.60;;;29.20;38.20;;;;;;4945086;29;20071;-76
2022/08/16 08:18:31;;;;;;;1.92;1.17;;;29.10;29.40;;;;;;4939951;29;20048;-76
2022/08/16 08:20:57;;;;;;;1.20;1.08;;;29.20;32.20;;;;;;4941471;29;20048;-75
2022/08/16 08:23:24;;;;;;;2.42;1.48;;;28.90;28.30;;;;;;4939495;29;20075;-76
2022/08/16 08:25:49;;;;;;;2.38;0.52;;;28.70;29.70;;;;;;4938384;29;20047;-77
2022/08/16 08:28:16;;;;;;;0.65;0.50;;;28.80;28.20;;;;;;4937570;29;20055;-76
2022/08/16 08:30:43;;;;;;;1.88;0.85;;;28.80;27.10;;;;;;4937676;29;20665;-76
2022/08/16 08:33:09;;;;;;;1.02;0.45;;;29.20;26.50;;;;;;4939424;29;20098;-75
2022/08/16 08:35:34;;;;;;;0.47;0.47;;;29.30;23.40;;;;;;4941707;29;20040;-75
2022/08/16 08:38:01;;;;;;;3.17;0.93;;;29.40;21.60;;;;;;4943242;29;20046;-75
2022/08/16 08:40:28;;;;;;;5.28;1.40;;;29.90;19.90;;;;;;4941837;29;20039;-75
2022/08/16 08:42:59;;;;;;;1.00;0.52;;;29.80;14.40;;;;;;4942798;29;20511;-75
2022/08/16 08:45:25;;;;;;;0.95;0.77;;;29.80;14.70;;;;;;4943014;29;20050;-75
2022/08/16 08:47:50;;;;;;;1.58;1.02;;;29.90;13.60;;;;;;4941154;29;20048;-75
2022/08/16 08:50:16;;;;;;;0.30;0.30;;;29.90;12.50;;;;;;4941105;29;20044;-75
2022/08/16 08:52:46;;;;;;;0.47;0.45;;;29.90;12.40;;;;;;4942029;29;20039;-75
2022/08/16 08:55:13;;;;;;;0.45;0.45;;;30.10;13.30;;;;;;4938744;29;20072;-76
2022/08/16 08:57:41;;;;;;;1.77;1.00;;;30.30;12.80;;;;;;4939269;29;20048;-75
2022/08/16 09:00:08;;;;;;;1.05;0.95;;;30.40;8.60;;;;;;4940854;29;20062;-75
2022/08/16 09:02:34;;;;;;;0.70;0.70;;;30.60;9.00;;;;;;4939923;29;20040;-75
2022/08/16 09:04:59;;;;;;;1.88;0.63;;;30.70;7.00;;;;;;4939603;29;20056;-75
2022/08/16 09:07:25;;;;;;;1.23;0.65;;;30.80;6.80;;;;;;4940257;29;20047;-75
2022/08/16 09:09:50;;;;;;;0.65;0.47;;;31.00;7.30;;;;;;4941035;29;20399;-74
2022/08/16 09:12:17;;;;;;;1.15;0.82;;;31.10;4.70;;;;;;4942135;29;20044;-75
2022/08/16 09:14:44;;;;;;;1.15;0.73;;;31.00;5.50;;;;;;4940052;29;20122;-75
2022/08/16 09:17:10;;;;;;;3.13;0.77;;;31.20;2.60;;;;;;4940091;29;20099;-75
2022/08/16 09:19:36;;;;;;;1.23;0.77;;;31.30;1.60;;;;;;4940418;29;20048;-75
2022/08/16 09:22:03;;;;;;;0.70;0.70;;;31.30;1.00;;;;;;4939732;29;20044;-75
2022/08/16 09:24:29;;;;;;;4.00;1.38;;;31.20;1.00;;;;;;4939468;29;20056;-75
2022/08/16 09:26:55;;;;;;;0.57;0.55;;;31.30;1.00;;;;;;4938415;29;20066;-75
2022/08/16 09:29:21;;;;;;;2.03;0.85;;;31.40;1.00;;;;;;4938635;29;20044;-75
2022/08/16 09:31:48;;;;;;;2.28;1.15;;;31.60;1.00;;;;;;4939194;29;20062;-76
2022/08/16 09:34:14;;;;;;;2.22;1.15;;;31.60;1.00;;;;;;4938433;29;20121;-75
2022/08/16 09:36:39;;;;;;;0.82;0.73;;;31.80;1.00;;;;;;4938819;29;20479;-75
2022/08/16 09:39:05;;;;;;;0.28;0.25;;;31.50;1.00;;;;;;4938925;29;20135;-75
2022/08/16 09:41:31;;;;;;;2.10;0.43;;;31.40;1.00;;;;;;4938486;29;20087;-75
2022/08/16 09:43:57;;;;;;;0.95;0.75;;;31.20;1.00;;;;;;4940919;29;20047;-74
2022/08/16 09:46:24;;;;;;;1.52;0.73;;;31.00;1.00;;;;;;4940604;29;20470;-74
2022/08/16 09:48:51;;;;;;;2.70;0.65;;;31.10;1.00;;;;;;4939576;29;20048;-74
2022/08/16 09:51:18;;;;;;;1.38;0.85;;;30.90;1.00;;;;;;4937074;29;20115;-74
2022/08/16 09:53:46;;;;;;;1.52;0.82;;;30.60;1.00;;;;;;4938970;29;20039;-75
2022/08/16 09:56:29;;;;;;;0.30;0.30;;;30.50;1.00;;;;;;4940251;29;20044;-75
2022/08/16 09:58:57;;;;;;;0.63;0.55;;;30.40;1.00;;;;;;4940293;29;20051;-75
2022/08/16 10:01:23;;;;;;;0.88;0.55;;;30.40;1.00;;;;;;4940736;29;20065;-75
2022/08/16 10:03:50;;;;;;;1.25;1.05;;;30.30;1.00;;;;;;4939601;29;20039;-75
2022/08/16 10:06:17;;;;;;;0.38;0.30;;;30.40;1.00;;;;;;4942594;29;20047;-75
2022/08/16 10:08:44;;;;;;;0.68;0.55;;;30.50;1.00;;;;;;4942864;29;20044;-74
2022/08/16 10:13:54;;;;;;;0.63;0.50;;;30.50;1.00;;;;;;4942550;29;20060;-75
2022/08/16 10:16:20;;;;;;;1.75;1.05;;;30.50;1.00;;;;;;4942509;29;20413;-75
2022/08/16 10:18:46;;;;;;;1.73;1.02;;;30.50;1.00;;;;;;4941988;29;20039;-75
2022/08/16 10:21:15;;;;;;;0.32;0.32;;;30.50;1.00;;;;;;4941532;29;20454;-75
2022/08/16 10:23:42;;;;;;;0.95;0.60;;;30.40;1.00;;;;;;4943508;29;20119;-75
2022/08/16 10:26:07;;;;;;;1.88;1.40;;;30.40;1.00;;;;;;4942647;29;20031;-75
2022/08/16 10:28:33;;;;;;;0.93;0.73;;;30.30;1.00;;;;;;4943185;29;20110;-75
2022/08/16 10:31:00;;;;;;;0.30;0.30;;;30.40;1.00;;;;;;4942552;29;20055;-76
2022/08/16 10:33:27;;;;;;;0.35;0.28;;;30.60;1.00;;;;;;4942785;29;20044;-76
2022/08/16 10:35:53;;;;;;;3.75;1.30;;;30.80;1.00;;;;;;4975517;28;20123;-75
2022/08/16 10:38:19;;;;;;;0.90;0.43;;;30.90;1.00;;;;;;4944358;29;20474;-75
2022/08/16 10:40:45;;;;;;;0.60;0.50;;;31.10;1.00;;;;;;4943436;29;20047;-76
2022/08/16 10:43:11;;;;;;;0.85;0.68;;;31.20;1.00;;;;;;4944364;29;20040;-75
2022/08/16 10:45:37;;;;;;;0.43;0.40;;;30.90;1.00;;;;;;4942789;29;20047;-75
2022/08/16 10:48:05;;;;;;;1.60;0.57;;;30.90;1.00;;;;;;4941670;29;20054;-75
2022/08/16 10:50:31;;;;;;;0.20;0.20;;;31.10;1.00;;;;;;4941788;29;20052;-75
2022/08/16 10:52:57;;;;;;;1.13;0.60;;;31.30;1.00;;;;;;4943065;29;20487;-75
2022/08/16 10:55:22;;;;;;;0.22;0.22;;;31.20;1.00;;;;;;4941905;29;20054;-76
2022/08/16 10:57:48;;;;;;;1.05;0.50;;;31.30;1.00;;;;;;4943606;29;20043;-76
2022/08/16 11:00:16;;;;;;;1.08;0.70;;;31.50;1.00;;;;;;4941305;29;20078;-75
2022/08/16 11:02:43;;;;;;;1.30;0.50;;;31.60;1.00;;;;;;4941283;29;20123;-75
2022/08/16 11:05:12;;;;;;;0.55;0.50;;;31.70;1.00;;;;;;4941544;29;20052;-75
2022/08/16 11:07:40;;;;;;;0.98;0.65;;;31.80;1.00;;;;;;4941380;29;20044;-75
2022/08/16 11:10:07;;;;;;;0.88;0.63;;;31.90;1.00;;;;;;4941126;29;20044;-74
2022/08/16 11:12:32;;;;;;;0.22;0.22;;;31.90;1.00;;;;;;4941976;29;20067;-75
2022/08/16 11:14:58;;;;;;;0.35;0.35;;;32.10;1.00;;;;;;4941603;29;20055;-75
2022/08/16 11:17:23;;;;;;;1.35;0.82;;;32.10;1.00;;;;;;4942153;29;20047;-76
2022/08/16 11:19:49;;;;;;;0.40;0.38;;;32.10;1.00;;;;;;4944545;29;20066;-75
2022/08/16 11:22:15;;;;;;;2.35;0.95;;;32.00;1.00;;;;;;4944581;29;20044;-75
2022/08/16 11:24:41;;;;;;;3.70;1.13;;;32.10;1.00;;;;;;4946766;29;20131;-75
2022/08/16 11:27:09;;;;;;;0.32;0.32;;;32.40;1.00;;;;;;4946560;29;20084;-76
2022/08/16 11:29:34;;;;;;;0.75;0.35;;;32.60;1.00;;;;;;4947107;29;20694;-75
2022/08/16 11:32:04;;;;;;;0.55;0.40;;;32.90;1.00;;;;;;4945577;29;20505;-75
2022/08/16 11:34:29;;;;;;;0.55;0.52;;;33.30;1.00;;;;;;4946019;29;20116;-74
2022/08/16 11:36:55;;;;;;;0.50;0.50;;;33.60;1.00;;;;;;4947899;29;20448;-75
2022/08/16 11:39:21;;;;;;;1.02;0.80;;;33.90;1.00;;;;;;4945324;29;20039;-76
2022/08/16 11:41:46;;;;;;;0.80;0.43;;;33.80;1.00;;;;;;4945814;29;20071;-76
2022/08/16 11:44:12;;;;;;;2.33;0.40;;;33.80;1.00;;;;;;4944038;29;20107;-75
2022/08/16 11:46:37;;;;;;;1.77;0.50;;;33.90;1.00;;;;;;4945343;29;20054;-77
2022/08/16 11:49:04;;;;;;;1.65;0.68;;;34.10;1.00;;;;;;4944400;29;20048;-76
2022/08/16 11:51:30;;;;;;;1.35;0.68;;;34.40;1.00;;;;;;4945072;29;20090;-75
2022/08/16 11:53:56;;;;;;;0.50;0.35;;;34.30;1.00;;;;;;4943067;29;20447;-76
2022/08/16 11:56:23;;;;;;;1.05;0.45;;;34.50;1.00;;;;;;4943973;29;20054;-75
2022/08/16 11:58:48;;;;;;;3.42;0.82;;;34.50;1.00;;;;;;4944029;29;20082;-76
2022/08/16 12:01:15;;;;;;;1.13;0.65;;;34.70;1.00;;;;;;4945846;29;20048;-75
2022/08/16 12:03:42;;;;;;;0.55;0.45;;;34.70;1.00;;;;;;4941132;29;20050;-75
2022/08/16 12:06:12;;;;;;;0.60;0.45;;;34.90;1.00;;;;;;4941297;29;20067;-76
2022/08/16 12:08:38;;;;;;;0.32;0.32;;;35.50;1.00;;;;;;4942100;29;20043;-75
2022/08/16 12:11:04;;;;;;;1.83;1.13;;;35.30;1.00;;;;;;4959486;29;20410;-75
2022/08/16 12:13:31;;;;;;;2.47;1.08;;;35.30;1.00;;;;;;4960840;28;20054;-76
2022/08/16 12:15:56;;;;;;;0.68;0.45;;;35.20;1.00;;;;;;4958935;28;20071;-75
2022/08/16 12:18:23;;;;;;;1.65;0.65;;;35.40;1.00;;;;;;4960844;29;20046;-76
2022/08/16 12:20:49;;;;;;;1.35;0.70;;;35.50;1.00;;;;;;4952369;28;20062;-75
2022/08/16 12:23:15;;;;;;;0.45;0.43;;;35.80;1.00;;;;;;4940169;29;20062;-76
2022/08/16 12:25:42;;;;;;;0.20;0.17;;;35.90;1.00;;;;;;4943019;29;20095;-76
2022/08/16 12:28:09;;;;;;;0.63;0.43;;;36.20;1.00;;;;;;4943256;29;20042;-75
2022/08/16 12:30:40;;;;;;;8.07;0.52;;;36.60;1.00;;;;;;4941526;29;20039;-76
2022/08/16 12:33:08;;;;;;;1.85;0.88;;;36.70;1.00;;;;;;4941433;29;20410;-77
2022/08/16 12:35:35;;;;;;;1.67;0.65;;;36.70;1.00;;;;;;4947761;28;20053;-77
2022/08/16 12:38:02;;;;;;;1.30;0.70;;;37.00;1.00;;;;;;4939448;29;20039;-76
2022/08/16 12:40:31;;;;;;;0.40;0.30;;;37.40;1.00;;;;;;4942126;29;20051;-76
2022/08/16 12:42:59;;;;;;;1.13;0.57;;;37.30;1.00;;;;;;4941598;29;20055;-76
2022/08/16 12:45:26;;;;;;;0.63;0.45;;;37.40;1.00;;;;;;4960416;28;20070;-76
2022/08/16 12:50:37;;;;;;;;;;;37.30;1.00;;;;;;4960248;28;20126;-76
2022/08/16 12:53:04;;;;;;;0.75;0.65;;;36.40;1.00;;;;;;4961126;29;19922;-76